createdAt,value
2023-03-05T00:00:48.898Z,5.85
2023-03-05T00:03:50.273Z,6.40
2023-03-05T00:06:51.613Z,6.90
2023-03-05T00:09:52.901Z,5.43
2023-03-05T00:12:54.220Z,6.40
2023-03-05T00:15:55.539Z,6.20
2023-03-05T00:18:56.829Z,7.00
2023-03-05T00:21:58.129Z,5.38
2023-03-05T00:24:59.431Z,5.28
2023-03-05T00:28:00.744Z,5.70
2023-03-05T00:31:02.071Z,6.50
2023-03-05T00:34:03.416Z,6.20
2023-03-05T00:37:04.704Z,6.30
2023-03-05T00:40:06.045Z,5.50
2023-03-05T00:43:07.358Z,6.20
2023-03-05T00:46:08.682Z,5.25
2023-03-05T00:49:10.020Z,6.37
2023-03-05T00:52:11.313Z,6.25
2023-03-05T00:55:12.609Z,6.00
2023-03-05T00:58:13.928Z,5.85
2023-03-05T01:01:15.204Z,5.28
2023-03-05T01:04:16.512Z,5.17
2023-03-05T01:07:17.833Z,5.50
2023-03-05T01:10:19.140Z,5.32
2023-03-05T01:13:20.453Z,5.13
2023-03-05T01:16:21.810Z,4.70
2023-03-05T01:19:23.157Z,4.90
2023-03-05T01:22:24.465Z,5.00
2023-03-05T01:25:25.768Z,5.55
2023-03-05T01:28:27.070Z,6.45
2023-03-05T01:31:28.398Z,5.05
2023-03-05T01:34:29.702Z,5.20
2023-03-05T01:37:31.002Z,5.93
2023-03-05T01:40:32.301Z,5.47
2023-03-05T01:43:33.640Z,5.47
2023-03-05T01:46:35.005Z,4.45
2023-03-05T01:49:36.346Z,4.30
2023-03-05T01:52:37.624Z,4.38
2023-03-05T01:55:38.929Z,4.47
2023-03-05T01:58:40.234Z,4.43
2023-03-05T02:01:41.528Z,4.15
2023-03-05T02:04:42.820Z,4.77
2023-03-05T02:07:44.128Z,5.45
2023-03-05T02:10:45.431Z,5.22
2023-03-05T02:13:46.750Z,5.07
2023-03-05T02:16:48.069Z,4.63
2023-03-05T02:19:49.375Z,3.70
2023-03-05T02:22:50.681Z,4.68
2023-03-05T02:25:51.964Z,5.03
2023-03-05T02:28:53.299Z,5.90
2023-03-05T02:31:54.663Z,4.50
2023-03-05T02:34:55.976Z,4.00
2023-03-05T02:37:57.269Z,4.40
2023-03-05T02:40:58.569Z,4.90
2023-03-05T02:43:59.834Z,4.45
2023-03-05T02:47:01.142Z,5.00
2023-03-05T02:50:02.440Z,3.73
2023-03-05T02:53:03.748Z,3.90
2023-03-05T02:56:05.070Z,3.83
2023-03-05T02:59:06.357Z,3.95
2023-03-05T03:02:07.658Z,3.40
2023-03-05T03:05:08.962Z,3.70
2023-03-05T03:08:10.249Z,4.28
2023-03-05T03:11:11.563Z,4.32
2023-03-05T03:14:12.872Z,4.30
2023-03-05T03:17:14.147Z,4.97
2023-03-05T03:20:15.459Z,4.07
2023-03-05T03:23:16.754Z,3.85
2023-03-05T03:26:18.049Z,4.32
2023-03-05T03:29:19.365Z,4.10
2023-03-05T03:32:20.708Z,4.38
2023-03-05T03:35:22.052Z,4.80
2023-03-05T03:38:23.383Z,4.10
2023-03-05T03:41:24.672Z,4.03
2023-03-05T03:44:25.968Z,5.65
2023-03-05T03:47:27.287Z,4.90
2023-03-05T03:50:28.597Z,4.17
2023-03-05T03:53:29.899Z,5.38
2023-03-05T03:56:31.191Z,4.57
2023-03-05T03:59:32.516Z,3.65
2023-03-05T04:02:33.884Z,4.30
2023-03-05T04:05:35.247Z,3.37
2023-03-05T04:08:36.550Z,3.95
2023-03-05T04:11:37.826Z,5.38
2023-03-05T04:14:39.130Z,4.15
2023-03-05T04:17:40.412Z,4.40
2023-03-05T04:20:41.708Z,4.63
2023-03-05T04:23:43.012Z,4.13
2023-03-05T04:26:44.323Z,5.20
2023-03-05T04:29:45.624Z,5.03
2023-03-05T04:32:46.957Z,5.55
2023-03-05T04:35:48.318Z,5.57
2023-03-05T04:38:49.631Z,5.65
2023-03-05T04:41:50.916Z,4.82
2023-03-05T04:44:52.236Z,4.93
2023-03-05T04:47:53.540Z,6.03
2023-03-05T04:50:54.836Z,5.77
2023-03-05T04:53:56.118Z,5.50
2023-03-05T04:56:57.437Z,6.25
2023-03-05T04:59:58.738Z,6.55
2023-03-05T05:03:00.108Z,6.40
2023-03-05T05:06:01.525Z,5.30
2023-03-05T05:09:02.824Z,7.15
2023-03-05T05:12:04.117Z,6.53
2023-03-05T05:15:05.404Z,6.45
2023-03-05T05:18:06.731Z,5.38
2023-03-05T05:21:08.020Z,6.90
2023-03-05T05:24:09.317Z,6.90
2023-03-05T05:27:10.619Z,7.13
2023-03-05T05:30:11.951Z,7.07
2023-03-05T05:33:13.228Z,7.85
2023-03-05T05:36:14.538Z,7.83
2023-03-05T05:39:15.824Z,7.07
2023-03-05T05:42:17.132Z,6.78
2023-03-05T05:45:18.487Z,7.13
2023-03-05T05:48:19.801Z,7.18
2023-03-05T05:51:21.102Z,7.90
2023-03-05T05:54:22.401Z,7.57
2023-03-05T05:57:23.709Z,8.10
2023-03-05T06:00:24.985Z,6.88
2023-03-05T06:03:26.362Z,7.78
2023-03-05T06:06:27.825Z,7.50
2023-03-05T06:09:29.128Z,7.50
2023-03-05T06:12:30.450Z,7.40
2023-03-05T06:15:31.795Z,8.77
2023-03-05T06:18:33.093Z,8.90
2023-03-05T06:21:34.423Z,10.70
2023-03-05T06:24:35.740Z,9.75
2023-03-05T06:27:37.030Z,9.90
2023-03-05T06:30:38.366Z,9.20
2023-03-05T06:33:39.669Z,8.88
2023-03-05T06:36:40.972Z,9.00
2023-03-05T06:39:42.257Z,9.50
2023-03-05T06:42:43.558Z,8.02
2023-03-05T06:45:44.886Z,8.75
2023-03-05T06:48:46.268Z,8.38
2023-03-05T06:51:47.612Z,8.17
2023-03-05T06:54:48.929Z,8.38
2023-03-05T06:57:50.229Z,7.78
2023-03-05T07:00:51.558Z,7.78
2023-03-05T07:03:52.864Z,8.30
2023-03-05T07:06:54.169Z,8.00
2023-03-05T07:09:55.467Z,7.63
2023-03-05T07:12:56.781Z,7.85
2023-03-05T07:15:58.172Z,7.70
2023-03-05T07:18:59.530Z,8.18
2023-03-05T07:22:00.835Z,7.87
2023-03-05T07:25:02.142Z,6.75
2023-03-05T07:28:03.439Z,7.60
2023-03-05T07:31:04.807Z,7.93
2023-03-05T07:34:06.131Z,6.40
2023-03-05T07:37:07.438Z,6.30
2023-03-05T07:40:08.750Z,6.57
2023-03-05T07:43:10.101Z,7.05
2023-03-05T07:46:11.494Z,6.50
2023-03-05T07:49:12.831Z,6.50
2023-03-05T07:52:14.137Z,7.50
2023-03-05T07:55:15.441Z,7.63
2023-03-05T07:58:16.758Z,7.43
2023-03-05T08:01:18.073Z,7.15
2023-03-05T08:04:19.395Z,7.30
2023-03-05T08:07:20.767Z,6.53
2023-03-05T08:10:22.048Z,6.65
2023-03-05T08:13:23.348Z,7.63
2023-03-05T08:16:24.660Z,9.75
2023-03-05T08:19:25.962Z,5.57
2023-03-05T08:22:27.253Z,7.17
2023-03-05T08:25:28.568Z,6.18
2023-03-05T08:28:29.860Z,7.13
2023-03-05T08:31:31.211Z,6.53
2023-03-05T08:34:32.538Z,7.00
2023-03-05T08:37:33.822Z,5.57
2023-03-05T08:40:35.145Z,5.38
2023-03-05T08:43:36.440Z,6.50
2023-03-05T08:46:37.768Z,6.00
2023-03-05T08:49:39.106Z,5.47
2023-03-05T08:52:40.389Z,7.13
2023-03-05T08:55:44.121Z,5.63
2023-03-05T08:58:45.547Z,5.93
2023-03-05T09:01:46.870Z,5.85
2023-03-05T09:04:48.195Z,6.28
2023-03-05T09:07:49.490Z,6.00
2023-03-05T09:10:50.802Z,6.53
2023-03-05T09:13:52.121Z,6.25
2023-03-05T09:16:53.435Z,6.88
2023-03-05T09:19:54.738Z,7.50
2023-03-05T09:22:56.059Z,5.63
2023-03-05T09:25:57.361Z,6.13
2023-03-05T09:28:58.649Z,6.80
2023-03-05T09:32:00.049Z,5.75
2023-03-05T09:35:01.453Z,6.13
2023-03-05T09:38:02.744Z,6.37
2023-03-05T09:41:04.060Z,6.05
2023-03-05T09:44:05.374Z,5.47
2023-03-05T09:47:06.686Z,5.20
2023-03-05T09:50:07.974Z,5.82
2023-03-05T09:53:09.274Z,5.27
2023-03-05T09:56:10.560Z,5.47
2023-03-05T09:59:11.884Z,6.40
2023-03-05T10:02:13.190Z,6.65
2023-03-05T10:05:14.496Z,5.93
2023-03-05T10:08:15.840Z,6.03
2023-03-05T10:11:17.121Z,6.45
2023-03-05T10:14:18.453Z,6.10
2023-03-05T10:17:19.757Z,5.65
2023-03-05T10:20:21.058Z,5.38
2023-03-05T10:23:22.392Z,5.90
2023-03-05T10:26:23.692Z,6.03
2023-03-05T10:29:24.982Z,4.85
2023-03-05T10:32:26.298Z,5.60
2023-03-05T10:35:27.661Z,6.10
2023-03-05T10:38:29.020Z,5.87
2023-03-05T10:41:30.338Z,6.07
2023-03-05T10:44:31.660Z,5.25
2023-03-05T10:47:32.958Z,5.28
2023-03-05T10:50:34.259Z,5.75
2023-03-05T10:53:35.638Z,6.60
2023-03-05T10:56:36.977Z,5.20
2023-03-05T10:59:38.977Z,5.93
2023-03-05T11:02:40.343Z,5.90
2023-03-05T11:05:41.653Z,6.28
2023-03-05T11:08:42.998Z,5.90
2023-03-05T11:11:44.707Z,5.20
2023-03-05T11:14:46.112Z,4.70
2023-03-05T11:17:48.229Z,5.63
2023-03-05T11:20:49.592Z,5.07
2023-03-05T11:23:51.187Z,5.13
2023-03-05T11:26:52.554Z,5.75
2023-03-05T11:29:53.867Z,5.68
2023-03-05T11:32:55.582Z,4.70
2023-03-05T11:35:57.027Z,6.30
2023-03-05T11:38:58.383Z,5.73
2023-03-05T11:41:59.660Z,6.25
2023-03-05T11:45:00.969Z,4.78
2023-03-05T11:48:02.276Z,4.57
2023-03-05T11:51:03.606Z,5.07
2023-03-05T11:54:04.899Z,5.50
2023-03-05T11:57:06.209Z,4.82
2023-03-05T12:00:07.513Z,5.90
2023-03-05T12:03:08.917Z,4.97
2023-03-05T12:06:10.363Z,5.93
2023-03-05T12:09:11.690Z,6.03
2023-03-05T12:12:12.990Z,4.60
2023-03-05T12:15:14.506Z,4.60
2023-03-05T12:18:15.849Z,4.65
2023-03-05T12:21:17.759Z,5.65
2023-03-05T12:24:19.230Z,5.17
2023-03-05T12:27:20.545Z,6.00
2023-03-05T12:30:24.282Z,4.85
2023-03-05T12:33:25.845Z,5.57
2023-03-05T12:36:27.507Z,5.25
2023-03-05T12:39:28.888Z,4.97
2023-03-05T12:42:30.284Z,4.50
2023-03-05T12:45:31.589Z,4.60
2023-03-05T12:48:32.986Z,4.75
2023-03-05T12:51:34.396Z,4.65
2023-03-05T12:54:35.736Z,5.43
2023-03-05T12:57:37.484Z,5.03
2023-03-05T13:00:38.883Z,4.68
2023-03-05T13:03:40.686Z,4.57
2023-03-05T13:06:45.072Z,4.80
2023-03-05T13:09:47.401Z,4.10
2023-03-05T13:12:48.796Z,4.68
2023-03-05T13:15:50.166Z,5.28
2023-03-05T13:18:51.498Z,5.25
2023-03-05T13:21:53.074Z,4.00
2023-03-05T13:24:54.815Z,4.63
2023-03-05T13:27:56.610Z,4.32
2023-03-05T13:30:58.413Z,4.80
2023-03-05T13:33:59.990Z,4.07
2023-03-05T13:37:01.619Z,4.25
2023-03-05T13:40:03.120Z,3.83
2023-03-05T13:43:04.859Z,4.53
2023-03-05T13:46:06.668Z,5.68
2023-03-05T13:49:08.077Z,4.20
2023-03-05T13:52:09.640Z,3.72
2023-03-05T13:55:14.566Z,3.70
2023-03-05T13:58:16.731Z,4.30
2023-03-05T14:01:19.316Z,4.30
2023-03-05T14:04:20.874Z,4.32
2023-03-05T14:07:22.233Z,4.22
2023-03-05T14:10:23.978Z,4.10
2023-03-05T14:13:25.726Z,4.28
2023-03-05T14:16:28.514Z,3.47
2023-03-05T14:19:30.360Z,3.88
2023-03-05T14:22:32.145Z,4.28
2023-03-05T14:25:33.788Z,3.83
2023-03-05T14:28:35.793Z,4.18
2023-03-05T14:31:37.443Z,4.65
2023-03-05T14:34:39.180Z,4.85
2023-03-05T14:37:41.050Z,4.30
2023-03-05T14:40:46.611Z,4.67
2023-03-05T14:43:48.412Z,3.92
2023-03-05T14:46:50.449Z,4.57
2023-03-05T14:49:52.324Z,4.07
2023-03-05T14:52:54.022Z,4.50
2023-03-05T14:55:55.890Z,5.00
2023-03-05T14:58:57.741Z,4.38
2023-03-05T15:01:59.124Z,4.28
2023-03-05T15:05:00.844Z,4.78
2023-03-05T15:08:02.823Z,4.78
2023-03-05T15:11:04.704Z,5.30
2023-03-05T15:14:06.508Z,6.25
2023-03-05T15:17:08.394Z,5.55
2023-03-05T15:20:10.295Z,4.05
2023-03-05T15:23:12.097Z,5.05
2023-03-05T15:26:13.872Z,4.27
2023-03-05T15:29:16.263Z,4.75
2023-03-05T15:32:19.192Z,5.03
2023-03-05T15:35:23.223Z,4.57
2023-03-05T15:38:25.134Z,5.57
2023-03-05T15:41:27.045Z,5.03
2023-03-05T15:44:28.906Z,4.68
2023-03-05T15:47:33.331Z,5.10
2023-03-05T15:50:35.754Z,5.07
2023-03-05T15:53:37.182Z,5.65
2023-03-05T15:56:38.483Z,5.10
2023-03-05T15:59:40.302Z,4.38
2023-03-05T16:02:42.326Z,4.53
2023-03-05T16:05:44.403Z,4.82
2023-03-05T16:08:46.272Z,4.93
2023-03-05T16:11:48.268Z,4.73
2023-03-05T16:14:50.997Z,4.88
2023-03-05T16:17:53.847Z,5.18
2023-03-05T16:20:56.163Z,4.43
2023-03-05T16:23:58.040Z,5.28
2023-03-05T16:26:59.881Z,4.70
2023-03-05T16:30:01.351Z,4.97
2023-03-05T16:33:04.038Z,5.32
2023-03-05T16:36:05.964Z,5.20
2023-03-05T16:39:07.738Z,5.78
2023-03-05T16:42:09.574Z,5.70
2023-03-05T16:45:12.559Z,5.63
2023-03-05T16:48:14.381Z,5.93
2023-03-05T16:51:15.792Z,5.90
2023-03-05T16:54:17.607Z,4.68
2023-03-05T16:57:19.460Z,7.13
2023-03-05T17:00:21.984Z,5.32
2023-03-05T17:03:23.878Z,5.22
2023-03-05T17:06:28.418Z,5.28
2023-03-05T17:09:30.301Z,5.53
2023-03-05T17:12:32.828Z,5.03
2023-03-05T17:15:34.664Z,5.85
2023-03-05T17:18:36.606Z,6.88
2023-03-05T17:21:40.521Z,5.95
2023-03-05T17:24:44.262Z,5.70
2023-03-05T17:27:46.091Z,6.17
2023-03-05T17:30:47.982Z,6.45
2023-03-05T17:33:49.904Z,6.80
2023-03-05T17:36:51.725Z,7.15
2023-03-05T17:39:53.567Z,6.93
2023-03-05T17:42:55.598Z,6.93
2023-03-05T17:45:57.530Z,6.85
2023-03-05T17:48:59.527Z,5.97
2023-03-05T17:52:01.436Z,5.43
2023-03-05T17:55:03.316Z,6.97
2023-03-05T17:58:06.284Z,7.63
2023-03-05T18:01:08.236Z,6.78
2023-03-05T18:04:09.701Z,5.55
2023-03-05T18:07:11.509Z,7.28
2023-03-05T18:10:13.429Z,6.57
2023-03-05T18:13:15.873Z,7.90
2023-03-05T18:16:17.324Z,7.80
2023-03-05T18:19:20.007Z,7.72
2023-03-05T18:22:21.862Z,7.25
2023-03-05T18:25:23.735Z,6.72
2023-03-05T18:28:25.552Z,5.90
2023-03-05T18:31:27.517Z,8.75
2023-03-05T18:34:29.919Z,6.53
2023-03-05T18:37:31.932Z,7.53
2023-03-05T18:40:33.812Z,6.10
2023-03-05T18:43:35.239Z,6.50
2023-03-05T18:46:37.075Z,7.22
2023-03-05T18:49:38.979Z,7.78
2023-03-05T18:52:40.946Z,6.95
2023-03-05T18:55:44.675Z,8.02
2023-03-05T18:58:46.560Z,7.53
2023-03-05T19:01:48.471Z,6.90
2023-03-05T19:04:50.352Z,7.30
2023-03-05T19:07:52.279Z,7.78
2023-03-05T19:10:54.249Z,7.95
2023-03-05T19:13:56.127Z,6.57
2023-03-05T19:16:57.985Z,6.28
2023-03-05T19:19:59.392Z,6.78
2023-03-05T19:23:01.233Z,8.13
2023-03-05T19:26:03.104Z,8.48
2023-03-05T19:29:06.049Z,8.93
2023-03-05T19:32:09.022Z,7.53
2023-03-05T19:35:11.319Z,6.60
2023-03-05T19:38:13.128Z,8.43
2023-03-05T19:41:15.067Z,8.23
2023-03-05T19:44:17.230Z,8.33
2023-03-05T19:47:18.786Z,7.13
2023-03-05T19:50:20.577Z,8.43
2023-03-05T19:53:22.523Z,8.45
2023-03-05T19:56:24.443Z,7.95
2023-03-05T19:59:25.825Z,9.50
2023-03-05T20:02:27.576Z,9.02
2023-03-05T20:05:29.469Z,8.43
2023-03-05T20:08:32.433Z,8.88
2023-03-05T20:11:34.325Z,8.57
2023-03-05T20:14:39.492Z,8.40
2023-03-05T20:17:41.749Z,9.07
2023-03-05T20:20:43.610Z,9.95
2023-03-05T20:23:45.486Z,9.35
2023-03-05T20:26:47.394Z,10.15
2023-03-05T20:29:52.057Z,11.23
2023-03-05T20:32:54.181Z,9.40
2023-03-05T20:35:55.812Z,9.15
2023-03-05T20:38:57.635Z,10.52
2023-03-05T20:41:59.540Z,10.77
2023-03-05T20:45:02.477Z,9.97
2023-03-05T20:48:04.358Z,10.88
2023-03-05T20:51:06.181Z,10.95
2023-03-05T20:54:08.111Z,11.45
2023-03-05T20:57:09.980Z,11.68
2023-03-05T21:00:11.383Z,11.27
2023-03-05T21:03:13.169Z,10.73
2023-03-05T21:06:14.556Z,12.45
2023-03-05T21:09:16.227Z,12.20
2023-03-05T21:12:18.059Z,13.93
2023-03-05T21:15:19.925Z,11.60
2023-03-05T21:18:22.737Z,11.43
2023-03-05T21:21:24.486Z,11.40
2023-03-05T21:24:26.208Z,11.98
2023-03-05T21:27:28.012Z,12.02
2023-03-05T21:30:29.648Z,12.00
2023-03-05T21:33:31.409Z,12.27
2023-03-05T21:36:33.285Z,11.57
2023-03-05T21:39:35.093Z,12.98
2023-03-05T21:42:36.460Z,12.90
2023-03-05T21:45:37.821Z,13.27
2023-03-05T21:48:39.136Z,11.95
2023-03-05T21:51:40.431Z,11.75
2023-03-05T21:54:41.730Z,12.85
2023-03-05T21:57:43.025Z,12.88
2023-03-05T22:00:44.482Z,13.30
2023-03-05T22:03:45.872Z,13.80
2023-03-05T22:06:47.225Z,12.95
2023-03-05T22:09:48.524Z,14.05
2023-03-05T22:12:49.824Z,12.93
2023-03-05T22:15:51.144Z,13.70
2023-03-05T22:18:52.440Z,13.13
2023-03-05T22:21:53.744Z,14.10
2023-03-05T22:24:55.039Z,13.75
2023-03-05T22:27:56.359Z,13.15
2023-03-05T22:30:57.719Z,13.97
2023-03-05T22:33:59.065Z,15.68
2023-03-05T22:37:00.356Z,16.48
2023-03-05T22:40:01.670Z,15.63
2023-03-05T22:43:02.962Z,15.10
2023-03-05T22:46:04.297Z,15.43
2023-03-05T22:49:05.618Z,15.02
2023-03-05T22:52:06.913Z,15.05
2023-03-05T22:55:08.193Z,15.30
2023-03-05T22:58:09.461Z,16.58
2023-03-05T23:01:10.773Z,18.07
2023-03-05T23:04:12.124Z,15.50
2023-03-05T23:07:13.423Z,16.77
2023-03-05T23:10:14.711Z,15.30
2023-03-05T23:13:16.028Z,16.55
2023-03-05T23:16:17.372Z,17.50
2023-03-05T23:19:18.700Z,15.75
2023-03-05T23:22:19.989Z,15.52
2023-03-05T23:25:21.292Z,15.20
2023-03-05T23:28:22.590Z,16.17
2023-03-05T23:31:24.016Z,14.97
2023-03-05T23:34:25.367Z,15.85
2023-03-05T23:37:26.674Z,16.23
2023-03-05T23:40:28.030Z,14.57
2023-03-05T23:43:29.360Z,15.35
2023-03-05T23:46:30.723Z,14.03
2023-03-05T23:49:32.114Z,15.07
2023-03-05T23:52:33.411Z,14.75
2023-03-05T23:55:34.735Z,14.02
2023-03-05T23:58:36.039Z,13.43
